Saint George, Canada
Current Conditions -  °F | °C
As of 7:00 PM on Tuesday 25 Nov 2014 (Local Time) from CYSJ Reporting Station
Broken Clouds Broken Clouds  
Wind Chill: 50°   Ceiling: 25000
Heat Index: 50°   Visibility: 15mi
Dew Point: 46°   Wind: 13mph
Humidity: 87%   Direction: 230°SW
Pressure: 29.81"   Gusts: 20mph
Location:  45.13°N, 66.82°W
Report Text: CYSJ 252300Z 23011G17KT 15SM BKN250 10/08 A2981 RMK CI7 PRESRR SLP097
Loading
Personal Weather Stations






























Interactive Weather Map New forecast layout! Learn more

10-Day Weather Forecast

Advertisements
Track Severe Weather on mobile